Time;durP1;ratioP1;P1;durP2;ratioP2;P2;SDS_P1;SDS_P2;PMS_P1;PMS_P2;Temp;Humidity;BMP_temperature;BMP_pressure;BME280_temperature;BME280_humidity;BME280_pressure;Samples;Min_cycle;Max_cycle;Signal;HPM_P1;HPM_P2
2024/01/21 00:00:56;;;;;;;6.82;3.50;;;;;;;2.45;67.91;100689.81;4974736;28;20086;-77
2024/01/21 00:03:22;;;;;;;6.32;3.33;;;;;;;2.49;68.36;100685.44;4974380;28;20058;-77
2024/01/21 00:05:49;;;;;;;4.22;2.75;;;;;;;2.55;68.78;100676.75;4973998;28;20043;-77
2024/01/21 00:08:16;;;;;;;6.50;3.35;;;;;;;2.60;69.28;100680.16;4956995;28;20058;-77
2024/01/21 00:10:42;;;;;;;6.05;3.33;;;;;;;2.62;68.21;100681.03;4974216;28;20567;-78
2024/01/21 00:13:09;;;;;;;6.13;3.13;;;;;;;2.66;68.71;100664.53;4957018;28;20055;-77
2024/01/21 00:15:35;;;;;;;5.53;2.72;;;;;;;2.69;68.86;100661.03;4974019;28;20050;-77
2024/01/21 00:18:02;;;;;;;6.70;3.47;;;;;;;2.72;68.85;100667.06;4973851;28;20047;-78
2024/01/21 00:20:30;;;;;;;5.85;3.20;;;;;;;2.74;68.54;100656.66;4974195;28;20043;-77
2024/01/21 00:22:57;;;;;;;6.85;2.90;;;;;;;2.79;68.93;100661.78;4973907;28;20055;-76
2024/01/21 00:25:24;;;;;;;7.40;3.35;;;;;;;2.82;68.37;100659.16;4973795;28;20051;-78
2024/01/21 00:27:50;;;;;;;4.97;2.90;;;;;;;2.83;68.62;100640.94;4973947;28;20047;-77
2024/01/21 00:33:08;;;;;;;5.22;2.67;;;;;;;2.90;69.00;100620.06;4972732;28;20057;-74
2024/01/21 00:35:35;;;;;;;5.10;2.95;;;;;;;2.93;68.84;100615.72;4974285;28;20452;-76
2024/01/21 00:38:02;;;;;;;7.88;2.88;;;;;;;2.95;68.74;100621.75;4974438;28;20063;-75
2024/01/21 00:40:29;;;;;;;4.45;2.80;;;;;;;2.99;68.64;100612.19;4974379;28;20420;-75
2024/01/21 00:42:58;;;;;;;4.63;2.85;;;;;;;3.02;68.27;100608.69;4974114;28;20109;-75
2024/01/21 00:45:26;;;;;;;5.93;2.80;;;;;;;3.03;68.38;100606.03;4974389;28;20090;-74
2024/01/21 00:47:52;;;;;;;5.65;2.90;;;;;;;3.04;68.42;100606.91;4974298;28;20065;-74
2024/01/21 00:50:19;;;;;;;3.63;2.35;;;;;;;3.05;68.13;100611.22;4973222;28;20075;-74
2024/01/21 00:52:46;;;;;;;4.07;2.72;;;;;;;3.06;68.34;100610.38;4973602;28;20130;-75
2024/01/21 00:55:12;;;;;;;3.47;2.10;;;;;;;3.07;67.58;100614.69;4973555;28;20078;-75
2024/01/21 00:57:39;;;;;;;4.22;2.38;;;;;;;3.06;67.68;100603.41;4973250;28;20098;-75
2024/01/21 01:00:06;;;;;;;4.45;2.20;;;;;;;3.08;67.17;100598.19;4972869;28;20069;-75
2024/01/21 01:02:33;;;;;;;3.92;2.40;;;;;;;3.10;67.56;100599.03;4973007;28;20055;-75
2024/01/21 01:04:59;;;;;;;4.00;2.40;;;;;;;3.10;67.66;100592.09;4973041;28;20082;-74
2024/01/21 01:07:26;;;;;;;3.63;2.38;;;;;;;3.11;67.29;100579.94;4972740;28;20055;-75
2024/01/21 01:09:53;;;;;;;2.90;2.10;;;;;;;3.12;67.69;100573.84;4972714;28;20070;-75
2024/01/21 01:12:19;;;;;;;4.97;2.47;;;;;;;3.14;67.65;100572.09;4955372;28;20508;-76
2024/01/21 01:14:46;;;;;;;3.90;2.05;;;;;;;3.14;65.95;100577.28;4972880;28;20058;-76
2024/01/21 01:17:12;;;;;;;3.63;2.17;;;;;;;3.15;66.00;100571.22;4972698;28;20146;-75
2024/01/21 01:19:39;;;;;;;3.40;2.25;;;;;;;3.16;66.72;100572.06;4973206;28;20086;-75
2024/01/21 01:22:06;;;;;;;5.78;2.00;;;;;;;3.17;67.01;100572.06;4972136;28;20047;-75
2024/01/21 01:24:32;;;;;;;4.00;2.30;;;;;;;3.18;67.64;100555.56;4972762;28;20272;-75
2024/01/21 01:26:59;;;;;;;3.83;2.15;;;;;;;3.20;67.39;100560.75;4954773;28;20627;-75
2024/01/21 01:29:25;;;;;;;3.95;2.13;;;;;;;3.22;67.43;100559.00;4972529;28;20526;-75
2024/01/21 01:31:52;;;;;;;4.15;2.58;;;;;;;3.24;67.49;100555.50;4972253;28;20062;-75
2024/01/21 01:34:18;;;;;;;2.08;1.58;;;;;;;3.25;67.12;100554.59;4972588;28;20078;-75
2024/01/21 01:36:45;;;;;;;4.57;1.98;;;;;;;3.28;67.57;100552.84;4972263;28;20051;-75
2024/01/21 01:39:12;;;;;;;2.75;1.80;;;;;;;3.30;67.59;100549.34;4972678;28;20074;-76
2024/01/21 01:41:38;;;;;;;2.50;1.63;;;;;;;3.33;67.08;100556.25;4972597;28;20055;-74
2024/01/21 01:44:05;;;;;;;3.45;1.88;;;;;;;3.34;67.26;100557.97;4972251;28;20055;-75
2024/01/21 01:46:32;;;;;;;3.50;2.00;;;;;;;3.36;67.29;100562.25;4971813;28;20043;-75
2024/01/21 01:48:58;;;;;;;3.05;2.10;;;;;;;3.37;67.13;100547.50;4972378;28;20133;-75
2024/01/21 01:51:26;;;;;;;3.10;1.70;;;;;;;3.39;66.86;100553.53;4972553;28;20480;-75
2024/01/21 01:53:53;;;;;;;2.42;1.70;;;;;;;3.39;66.92;100551.81;4972083;28;20050;-75
2024/01/21 01:56:20;;;;;;;3.28;2.28;;;;;;;3.40;67.02;100539.63;4954648;28;20082;-75
2024/01/21 01:58:49;;;;;;;3.67;1.88;;;;;;;3.39;66.56;100550.94;4972188;28;20043;-75
2024/01/21 02:01:16;;;;;;;3.90;1.90;;;;;;;3.39;66.44;100543.13;4971957;28;20058;-75
2024/01/21 02:03:42;;;;;;;2.78;1.75;;;;;;;3.37;66.10;100544.91;4971989;28;20051;-75
2024/01/21 02:06:09;;;;;;;3.17;1.90;;;;;;;3.35;66.20;100538.84;4971949;28;20046;-75
2024/01/21 02:08:36;;;;;;;2.80;1.63;;;;;;;3.33;66.31;100538.03;4954888;28;20050;-76
2024/01/21 02:11:03;;;;;;;3.55;2.28;;;;;;;3.29;65.63;100531.16;4972020;28;20102;-74
2024/01/21 02:13:29;;;;;;;3.55;2.00;;;;;;;3.25;66.45;100523.38;4971847;28;20141;-74
2024/01/21 02:15:58;;;;;;;3.40;1.90;;;;;;;3.23;65.92;100519.06;4971935;28;20142;-75
2024/01/21 02:18:25;;;;;;;2.58;2.20;;;;;;;3.20;66.09;100506.97;4971856;28;20145;-75
2024/01/21 02:20:52;;;;;;;3.25;1.92;;;;;;;3.18;66.25;100502.69;4971282;28;20043;-75
2024/01/21 02:23:18;;;;;;;2.45;1.50;;;;;;;3.15;65.96;100492.31;4971949;28;20050;-75
2024/01/21 02:25:45;;;;;;;2.15;1.40;;;;;;;3.14;66.32;100488.84;4971955;28;20499;-76
2024/01/21 02:28:11;;;;;;;2.38;1.67;;;;;;;3.11;66.79;100468.94;4971343;28;20118;-75
2024/01/21 02:30:41;;;;;;;2.55;1.60;;;;;;;3.13;66.33;100474.13;4954944;28;20115;-75
2024/01/21 02:33:08;;;;;;;4.47;1.90;;;;;;;3.12;66.26;100462.88;4971539;28;20057;-76
2024/01/21 02:35:36;;;;;;;2.47;1.50;;;;;;;3.13;66.74;100454.19;4972037;28;20051;-75
2024/01/21 02:38:03;;;;;;;3.22;1.58;;;;;;;3.13;66.29;100446.38;4971445;28;20050;-75
2024/01/21 02:40:31;;;;;;;3.47;1.70;;;;;;;3.16;66.62;100455.00;4971617;28;20057;-75
2024/01/21 02:42:57;;;;;;;2.33;1.38;;;;;;;3.17;66.10;100451.53;4971928;28;20094;-75
2024/01/21 02:45:24;;;;;;;4.18;1.70;;;;;;;3.19;65.97;100454.97;4954828;28;20082;-75
2024/01/21 02:47:50;;;;;;;3.05;2.00;;;;;;;3.18;66.43;100448.88;4971748;28;20069;-75
2024/01/21 02:50:17;;;;;;;2.35;1.98;;;;;;;3.20;66.02;100449.75;4971792;28;20042;-75
2024/01/21 02:52:44;;;;;;;3.83;2.00;;;;;;;3.20;66.26;100444.53;4971812;28;20090;-75
2024/01/21 02:55:10;;;;;;;3.92;2.00;;;;;;;3.20;65.78;100441.06;4971700;28;20062;-75
2024/01/21 02:57:37;;;;;;;3.00;1.98;;;;;;;3.19;65.73;100427.22;4971773;28;20047;-75
2024/01/21 03:00:04;;;;;;;3.10;1.63;;;;;;;3.20;66.20;100425.44;4971641;28;20519;-75
2024/01/21 03:02:31;;;;;;;3.45;1.67;;;;;;;3.19;65.95;100427.22;4971702;28;20129;-75
2024/01/21 03:04:58;;;;;;;2.83;1.85;;;;;;;3.20;66.17;100412.44;4971740;28;20492;-75
2024/01/21 03:07:25;;;;;;;2.38;1.88;;;;;;;3.19;65.92;100409.00;4971213;28;20139;-75
2024/01/21 03:09:51;;;;;;;2.78;1.67;;;;;;;3.19;66.03;100408.13;4971650;28;20059;-75
2024/01/21 03:12:18;;;;;;;2.72;1.55;;;;;;;3.19;66.05;100396.00;4971500;28;20507;-75
2024/01/21 03:14:44;;;;;;;5.55;1.92;;;;;;;3.21;65.32;100385.56;4971657;28;20137;-75
2024/01/21 03:17:11;;;;;;;2.22;1.55;;;;;;;3.21;65.29;100390.78;4971631;28;20058;-75
2024/01/21 03:19:38;;;;;;;3.00;1.70;;;;;;;3.22;65.80;100382.91;4971157;28;20480;-75
2024/01/21 03:22:04;;;;;;;2.75;1.65;;;;;;;3.24;65.92;100375.97;4971249;28;20046;-75
2024/01/21 03:24:31;;;;;;;1.98;1.45;;;;;;;3.26;65.95;100379.38;4971445;28;20047;-75
2024/01/21 03:26:58;;;;;;;2.95;1.70;;;;;;;3.26;65.39;100376.78;4954489;28;20050;-75
2024/01/21 03:29:25;;;;;;;2.63;1.60;;;;;;;3.29;66.06;100367.22;4984447;23;20054;-75
2024/01/21 03:31:51;;;;;;;3.03;1.70;;;;;;;3.30;65.94;100368.94;4956350;28;20053;-75
2024/01/21 03:34:18;;;;;;;4.22;2.20;;;;;;;3.31;66.11;100375.84;4974892;28;20066;-75
2024/01/21 03:36:45;;;;;;;2.67;1.73;;;;;;;3.32;65.77;100373.22;4975489;28;20081;-76
2024/01/21 03:39:11;;;;;;;3.08;1.98;;;;;;;3.33;65.36;100348.06;4975111;28;20059;-75
2024/01/21 03:41:38;;;;;;;3.97;2.22;;;;;;;3.35;65.81;100356.69;4975037;28;20056;-75
2024/01/21 03:44:04;;;;;;;3.47;2.00;;;;;;;3.36;66.23;100351.47;4975014;28;20460;-75
2024/01/21 03:46:31;;;;;;;3.47;2.00;;;;;;;3.37;65.44;100354.94;4957529;28;20050;-74
2024/01/21 03:48:57;;;;;;;3.38;2.28;;;;;;;3.38;65.26;100347.09;4974361;28;20039;-75
2024/01/21 03:51:24;;;;;;;4.57;2.00;;;;;;;3.39;65.55;100354.03;4974408;28;20508;-75
2024/01/21 03:53:51;;;;;;;3.47;2.17;;;;;;;3.41;65.80;100340.13;4957227;28;20046;-75
2024/01/21 03:56:19;;;;;;;3.80;2.30;;;;;;;3.43;65.99;100346.16;4957716;28;20053;-75
2024/01/21 03:58:45;;;;;;;3.72;2.20;;;;;;;3.43;65.67;100333.16;4974680;28;20540;-75
2024/01/21 04:01:12;;;;;;;3.63;2.22;;;;;;;3.43;64.77;100328.78;4974419;28;20130;-75
2024/01/21 04:03:39;;;;;;;4.22;2.40;;;;;;;3.43;65.08;100320.97;4957091;28;20078;-75
2024/01/21 04:06:06;;;;;;;3.08;2.20;;;;;;;3.44;65.47;100320.09;4974484;28;20050;-75
2024/01/21 04:08:33;;;;;;;4.10;2.25;;;;;;;3.46;65.67;100318.34;4987539;23;20583;-75
2024/01/21 04:11:00;;;;;;;3.67;2.05;;;;;;;3.46;65.87;100318.34;4975774;28;20105;-75
2024/01/21 04:13:26;;;;;;;3.42;2.30;;;;;;;3.47;65.33;100312.22;4974957;28;20484;-75
2024/01/21 04:15:53;;;;;;;4.07;2.40;;;;;;;3.47;64.99;100303.56;4974994;28;20488;-74
2024/01/21 04:18:20;;;;;;;3.08;2.00;;;;;;;3.47;65.13;100291.41;4957647;28;20057;-75
2024/01/21 04:20:46;;;;;;;3.70;2.40;;;;;;;3.47;65.37;100285.34;4974393;28;20066;-75
2024/01/21 04:23:13;;;;;;;6.28;2.80;;;;;;;3.48;65.06;100287.91;4974401;28;20051;-76
2024/01/21 04:25:39;;;;;;;4.85;2.53;;;;;;;3.47;65.32;100275.78;4956768;28;20389;-75
2024/01/21 04:28:06;;;;;;;4.45;2.40;;;;;;;3.47;65.55;100282.72;4974486;28;20055;-75
2024/01/21 04:30:32;;;;;;;2.22;1.60;;;;;;;3.47;65.16;100283.59;4974362;28;20134;-75
2024/01/21 04:32:59;;;;;;;3.58;2.38;;;;;;;3.47;65.35;100267.13;4973860;28;20047;-75
2024/01/21 04:35:26;;;;;;;3.15;2.25;;;;;;;3.45;65.56;100269.78;4973754;28;20050;-75
2024/01/21 04:37:53;;;;;;;3.22;1.98;;;;;;;3.47;65.20;100267.97;4974221;28;20411;-75
2024/01/21 04:40:19;;;;;;;3.22;2.05;;;;;;;3.47;65.42;100254.97;4973698;28;20054;-75
2024/01/21 04:42:46;;;;;;;11.30;2.38;;;;;;;3.47;65.57;100249.75;4973085;28;20129;-75
2024/01/21 04:45:14;;;;;;;3.70;2.20;;;;;;;3.48;65.38;100261.03;4973965;28;20086;-75
2024/01/21 04:47:41;;;;;;;5.22;2.25;;;;;;;3.48;65.02;100253.25;4956471;28;20042;-75
2024/01/21 04:50:08;;;;;;;3.83;2.15;;;;;;;3.49;64.48;100257.53;4973837;28;20133;-75
2024/01/21 04:52:35;;;;;;;4.18;2.03;;;;;;;3.49;64.80;100249.75;4973605;28;20063;-75
2024/01/21 04:55:01;;;;;;;3.85;2.30;;;;;;;3.50;64.71;100241.03;4973694;28;20062;-74
2024/01/21 04:57:28;;;;;;;4.30;2.38;;;;;;;3.50;65.04;100231.50;4956528;28;20138;-75
2024/01/21 04:59:54;;;;;;;4.30;1.90;;;;;;;3.50;64.61;100217.59;4973707;28;20069;-75
2024/01/21 05:02:21;;;;;;;2.70;2.05;;;;;;;3.52;64.79;100216.69;4973379;28;20047;-75
2024/01/21 05:04:47;;;;;;;3.83;2.30;;;;;;;3.52;64.24;100203.66;4956447;28;20135;-75
2024/01/21 05:07:14;;;;;;;3.05;1.95;;;;;;;3.54;64.90;100208.00;4973207;28;20142;-75
2024/01/21 05:09:41;;;;;;;2.55;1.65;;;;;;;3.55;64.76;100184.53;4973292;23;20039;-75
2024/01/21 05:12:07;;;;;;;4.00;1.92;;;;;;;3.57;64.69;100189.72;4973252;28;20050;-73
2024/01/21 05:14:34;;;;;;;3.03;1.90;;;;;;;3.58;64.52;100178.41;4956139;28;20051;-75
2024/01/21 05:17:00;;;;;;;3.17;1.85;;;;;;;3.58;64.35;100166.25;4972980;28;20133;-75
2024/01/21 05:19:27;;;;;;;2.65;1.63;;;;;;;3.60;64.62;100155.81;4973208;28;20113;-75
2024/01/21 05:21:54;;;;;;;4.15;2.17;;;;;;;3.61;64.78;100160.13;4972825;28;20054;-74
2024/01/21 05:24:20;;;;;;;3.00;1.98;;;;;;;3.63;64.73;100155.75;4973303;28;20072;-75
2024/01/21 05:26:47;;;;;;;4.10;1.83;;;;;;;3.64;64.80;100145.31;4973196;28;20065;-76
2024/01/21 05:29:13;;;;;;;2.70;1.85;;;;;;;3.66;64.26;100140.03;4972919;28;20137;-75
2024/01/21 05:31:40;;;;;;;2.38;1.70;;;;;;;3.69;64.50;100133.91;4972693;28;20051;-75
2024/01/21 05:34:06;;;;;;;3.00;1.85;;;;;;;3.71;63.41;100129.53;4972592;28;20058;-75
2024/01/21 05:36:33;;;;;;;2.28;1.70;;;;;;;3.73;64.43;100127.75;4972841;28;20151;-75
2024/01/21 05:39:00;;;;;;;3.30;1.85;;;;;;;3.74;64.15;100124.28;4955670;28;20047;-75
2024/01/21 05:41:28;;;;;;;2.92;1.90;;;;;;;3.75;64.41;100121.63;4972936;28;20054;-75
2024/01/21 05:43:55;;;;;;;2.40;1.67;;;;;;;3.76;63.24;100131.16;4972415;28;20137;-75
2024/01/21 05:46:22;;;;;;;3.92;2.05;;;;;;;3.75;62.54;100136.38;4972967;28;20050;-75
2024/01/21 05:48:49;;;;;;;3.63;2.10;;;;;;;3.76;61.89;100136.38;4972604;28;20061;-75
2024/01/21 05:51:15;;;;;;;4.05;2.03;;;;;;;3.78;62.70;100125.91;4972441;28;20051;-75
2024/01/21 05:53:42;;;;;;;2.33;1.73;;;;;;;3.77;62.98;100127.66;4972240;28;20728;-75
2024/01/21 05:56:10;;;;;;;2.58;1.73;;;;;;;3.77;63.37;100129.38;4972738;28;20090;-75
2024/01/21 05:58:36;;;;;;;2.97;1.80;;;;;;;3.77;62.98;100130.25;4955026;28;20043;-75
2024/01/21 06:01:03;;;;;;;2.78;2.00;;;;;;;3.75;63.24;100120.78;4955332;28;20125;-75
2024/01/21 06:03:30;;;;;;;3.20;2.08;;;;;;;3.73;62.81;100115.59;4971893;28;20534;-75
2024/01/21 06:05:58;;;;;;;2.95;1.95;;;;;;;3.71;62.85;100119.13;4971840;28;20486;-75
2024/01/21 06:08:24;;;;;;;2.22;1.73;;;;;;;3.70;63.04;100107.84;4971937;28;20577;-75
2024/01/21 06:10:51;;;;;;;2.95;1.85;;;;;;;3.69;63.12;100106.13;4972088;28;20043;-75
2024/01/21 06:13:17;;;;;;;4.40;2.08;;;;;;;3.68;63.50;100099.22;4971646;28;20059;-76
2024/01/21 06:15:45;;;;;;;3.80;2.00;;;;;;;3.67;63.04;100092.31;4972242;28;20059;-72
2024/01/21 06:18:12;;;;;;;4.78;2.25;;;;;;;3.68;63.32;100085.34;4954949;28;20054;-73
2024/01/21 06:20:39;;;;;;;3.38;1.85;;;;;;;3.67;63.38;100084.50;4971794;28;20419;-72
2024/01/21 06:23:06;;;;;;;4.55;2.00;;;;;;;3.69;63.69;100090.50;4971933;28;20051;-73
2024/01/21 06:25:32;;;;;;;2.38;1.80;;;;;;;3.69;63.10;100085.31;4971686;28;20109;-73
2024/01/21 06:27:59;;;;;;;3.38;1.92;;;;;;;3.70;63.42;100074.00;4954523;28;20133;-72
2024/01/21 06:30:25;;;;;;;3.95;2.35;;;;;;;3.71;63.04;100072.25;5022533;23;20149;-78
2024/01/21 06:32:52;;;;;;;4.95;1.95;;;;;;;3.71;62.54;100067.06;4971295;28;20105;-77
2024/01/21 06:35:28;;;;;;;3.13;1.83;;;;;;;3.71;62.42;100059.25;4972376;28;20609;-77
2024/01/21 06:37:55;;;;;;;3.00;1.92;;;;;;;3.71;62.41;100046.22;4972538;28;20116;-81
2024/01/21 06:40:22;;;;;;;3.58;2.38;;;;;;;3.71;62.10;100052.28;4971996;28;20109;-77
2024/01/21 06:42:48;;;;;;;2.80;1.90;;;;;;;3.69;61.42;100038.44;4971607;28;20543;-76
2024/01/21 06:45:15;;;;;;;2.80;1.85;;;;;;;3.70;62.32;100045.34;4972251;28;20070;-77
2024/01/21 06:47:42;;;;;;;3.97;1.90;;;;;;;3.71;62.91;100020.19;4972418;28;20121;-76
2024/01/21 06:50:10;;;;;;;2.83;1.80;;;;;;;3.72;61.47;100032.31;4955291;28;20496;-77
2024/01/21 06:52:36;;;;;;;2.33;1.67;;;;;;;3.73;61.67;100037.47;4954863;28;20055;-79
2024/01/21 06:55:03;;;;;;;5.15;1.75;;;;;;;3.75;61.41;100051.34;4971901;28;20142;-77
2024/01/21 06:57:30;;;;;;;3.10;1.80;;;;;;;3.77;60.25;100049.53;4955376;28;20131;-76
2024/01/21 06:59:56;;;;;;;3.33;1.85;;;;;;;3.82;61.53;100045.97;4971457;28;20047;-77
2024/01/21 07:02:23;;;;;;;3.08;2.08;;;;;;;3.86;61.30;100045.00;4954270;28;20548;-77
2024/01/21 07:04:49;;;;;;;4.28;2.28;;;;;;;3.86;59.44;100042.41;4971282;28;20051;-76
2024/01/21 07:07:16;;;;;;;3.65;2.22;;;;;;;3.91;60.63;100040.53;4974513;28;20489;-77
2024/01/21 07:09:42;;;;;;;3.15;2.03;;;;;;;3.96;61.29;100050.84;4975306;28;20097;-77
2024/01/21 07:12:09;;;;;;;3.47;2.28;;;;;;;3.98;61.54;100029.06;4975394;28;20051;-77
2024/01/21 07:14:36;;;;;;;2.67;1.90;;;;;;;4.03;61.79;100048.03;4975146;28;20086;-78
2024/01/21 07:17:03;;;;;;;2.47;1.67;;;;;;;4.05;61.34;100074.06;4958312;28;20043;-78
2024/01/21 07:19:30;;;;;;;5.35;2.65;;;;;;;4.07;60.03;100058.38;4975250;28;20061;-77
2024/01/21 07:21:57;;;;;;;2.70;1.85;;;;;;;4.08;60.13;100054.88;4974947;28;20046;-79
2024/01/21 07:24:24;;;;;;;5.72;2.13;;;;;;;4.08;60.36;100079.19;4974988;28;20073;-79
2024/01/21 07:26:51;;;;;;;3.55;2.03;;;;;;;4.07;57.67;100084.44;4974916;28;20109;-77
2024/01/21 07:29:17;;;;;;;4.07;2.78;;;;;;;4.08;58.23;100096.56;4975139;28;20744;-76
2024/01/21 07:31:44;;;;;;;3.53;2.20;;;;;;;4.10;58.00;100089.56;4957840;28;20051;-78
2024/01/21 07:34:10;;;;;;;3.85;2.35;;;;;;;4.12;58.42;100069.53;4974698;28;20407;-79
2024/01/21 07:36:37;;;;;;;4.65;2.35;;;;;;;4.10;56.26;100094.75;4957352;28;20062;-79
2024/01/21 07:39:04;;;;;;;4.75;2.40;;;;;;;4.13;57.59;100092.97;4975117;28;20134;-77
2024/01/21 07:41:31;;;;;;;4.32;2.42;;;;;;;4.16;56.67;100105.88;4957796;28;20060;-77
2024/01/21 07:43:59;;;;;;;4.07;2.42;;;;;;;4.17;56.93;100106.75;4974687;28;20506;-77
2024/01/21 07:46:25;;;;;;;4.10;2.30;;;;;;;4.18;56.94;100108.47;4974569;28;20484;-79
2024/01/21 07:48:52;;;;;;;4.10;2.83;;;;;;;4.19;56.54;100104.97;4974819;28;20492;-76
2024/01/21 07:51:19;;;;;;;5.20;2.83;;;;;;;4.22;56.78;100104.88;4974853;28;20051;-77
2024/01/21 07:53:46;;;;;;;4.68;2.97;;;;;;;4.25;56.33;100090.91;4974664;28;20055;-76
2024/01/21 07:56:13;;;;;;;7.55;3.05;;;;;;;4.26;55.53;100084.84;4974728;28;20047;-77
2024/01/21 07:58:40;;;;;;;4.70;3.00;;;;;;;4.30;56.60;100081.25;4974537;28;20059;-77
2024/01/21 08:01:12;;;;;;;5.18;2.67;;;;;;;4.30;52.85;100089.06;4973765;28;20046;-78
2024/01/21 08:03:39;;;;;;;4.13;2.80;;;;;;;4.36;56.20;100091.50;4955153;29;20082;-78
2024/01/21 08:06:09;;;;;;;4.57;2.63;;;;;;;4.42;57.09;100095.72;4938078;29;20070;-79
2024/01/21 08:08:36;;;;;;;7.20;2.90;;;;;;;4.42;55.42;100086.13;4972839;28;20510;-77
2024/01/21 08:11:03;;;;;;;5.47;3.40;;;;;;;4.46;55.22;100086.91;4957738;28;20047;-77
2024/01/21 08:13:30;;;;;;;5.75;3.47;;;;;;;4.49;55.80;100073.78;4957090;28;20062;-78
2024/01/21 08:15:57;;;;;;;5.40;3.20;;;;;;;4.51;56.14;100050.28;4957369;28;20051;-78
2024/01/21 08:18:24;;;;;;;6.43;2.92;;;;;;;4.53;55.22;100051.13;4972732;28;20047;-77
2024/01/21 08:20:51;;;;;;;10.48;3.47;;;;;;;4.51;52.92;100064.19;4974698;28;20074;-78
2024/01/21 08:23:19;;;;;;;6.93;3.15;;;;;;;4.51;53.57;100063.31;4974287;28;20133;-76
2024/01/21 08:25:45;;;;;;;7.60;3.45;;;;;;;4.53;54.62;100064.97;4974408;28;20055;-78
2024/01/21 08:28:13;;;;;;;7.50;4.03;;;;;;;4.54;54.12;100048.47;4973333;28;20039;-80
2024/01/21 08:30:40;;;;;;;6.53;3.78;;;;;;;4.53;53.08;100046.75;4969242;28;20046;-79
2024/01/21 08:33:07;;;;;;;7.63;3.92;;;;;;;4.57;55.00;100035.31;4963040;28;20102;-77
2024/01/21 08:35:36;;;;;;;5.93;3.47;;;;;;;4.57;54.54;100043.16;4947712;28;20077;-76
2024/01/21 08:38:02;;;;;;;6.30;3.55;;;;;;;4.57;53.89;100053.56;4964206;28;20074;-78
2024/01/21 08:40:29;;;;;;;6.93;3.40;;;;;;;4.61;55.26;100050.91;4971321;28;20503;-77
2024/01/21 08:42:55;;;;;;;7.75;3.78;;;;;;;4.58;52.11;100057.06;4973975;28;20057;-76
2024/01/21 08:45:22;;;;;;;6.68;4.10;;;;;;;4.61;53.39;100063.94;4973772;28;20074;-80
2024/01/21 08:47:48;;;;;;;7.00;3.90;;;;;;;4.59;52.37;100076.16;4973866;28;20050;-78
2024/01/21 08:50:15;;;;;;;7.63;4.15;;;;;;;4.61;53.72;100095.22;4973841;28;20054;-77
2024/01/21 08:52:42;;;;;;;7.22;4.10;;;;;;;4.63;54.91;100083.84;4973700;28;20125;-77
2024/01/21 08:55:08;;;;;;;6.45;3.67;;;;;;;4.63;53.96;100073.41;4973520;28;20416;-77
2024/01/21 08:57:35;;;;;;;6.18;4.45;;;;;;;4.65;53.71;100112.50;4973846;28;20133;-77
2024/01/21 09:00:02;;;;;;;7.35;3.78;;;;;;;4.64;53.13;100095.97;4973210;28;20086;-77
2024/01/21 09:02:28;;;;;;;7.18;4.47;;;;;;;4.67;53.24;100121.13;4973568;28;20502;-77
2024/01/21 09:04:56;;;;;;;8.07;4.78;;;;;;;4.68;53.82;100133.28;4956370;28;20135;-76
2024/01/21 09:07:22;;;;;;;10.38;5.00;;;;;;;4.66;51.12;100119.41;4973572;28;20089;-77
2024/01/21 09:09:49;;;;;;;11.02;4.65;;;;;;;4.68;53.23;100138.50;4956115;28;20160;-77
2024/01/21 09:12:15;;;;;;;7.00;4.40;;;;;;;4.70;54.06;100136.69;4956377;28;20069;-77
2024/01/21 09:14:42;;;;;;;9.10;4.43;;;;;;;4.71;54.21;100130.56;4973327;28;20556;-77
2024/01/21 09:17:09;;;;;;;8.48;4.15;;;;;;;4.72;54.78;100118.41;4973558;28;20150;-78
2024/01/21 09:19:36;;;;;;;12.38;4.53;;;;;;;4.73;53.59;100122.72;4973027;28;20043;-78
2024/01/21 09:22:03;;;;;;;7.97;4.82;;;;;;;4.74;54.43;100116.63;4972871;28;20053;-77
2024/01/21 09:24:30;;;;;;;10.50;4.85;;;;;;;4.73;51.89;100138.38;4973349;28;20100;-77
2024/01/21 09:26:57;;;;;;;9.52;4.70;;;;;;;4.76;54.04;100140.91;4972957;28;20098;-77
2024/01/21 09:29:23;;;;;;;6.75;4.18;;;;;;;4.78;54.05;100134.75;4972762;28;20058;-78
2024/01/21 09:31:56;;;;;;;8.98;5.00;;;;;;;4.77;51.67;100125.22;4973079;28;20143;-77
2024/01/21 09:34:24;;;;;;;7.75;4.97;;;;;;;4.80;54.77;100111.22;4972972;28;20106;-78
2024/01/21 09:36:51;;;;;;;8.25;4.93;;;;;;;4.80;54.37;100111.22;4973045;28;20051;-77
2024/01/21 09:39:18;;;;;;;6.93;4.57;;;;;;;4.82;54.45;100125.06;4972661;28;20428;-77
2024/01/21 09:41:49;;;;;;;9.07;5.07;;;;;;;4.81;51.20;100110.31;4972995;28;20058;-77
2024/01/21 09:44:24;;;;;;;8.00;4.90;;;;;;;4.88;51.99;100119.69;4972880;28;20536;-78
2024/01/21 09:47:01;;;;;;;9.00;5.03;;;;;;;4.91;49.69;100108.31;4972884;28;20058;-78
2024/01/21 09:49:28;;;;;;;9.30;5.50;;;;;;;4.96;54.32;100106.44;4972415;28;20121;-79
2024/01/21 09:51:55;;;;;;;8.73;5.40;;;;;;;4.98;54.50;100109.88;4972464;28;20102;-78
2024/01/21 09:54:23;;;;;;;8.30;5.65;;;;;;;5.00;53.88;100097.63;4972733;28;20051;-76
2024/01/21 09:56:50;;;;;;;9.90;5.55;;;;;;;5.01;54.16;100098.50;4972707;28;20130;-77
2024/01/21 09:59:16;;;;;;;9.05;5.72;;;;;;;5.02;52.74;100098.44;4972090;28;20555;-78
2024/01/21 10:01:43;;;;;;;11.48;5.45;;;;;;;5.01;53.48;100101.94;4972566;28;20094;-77
2024/01/21 10:04:11;;;;;;;8.57;5.03;;;;;;;5.05;54.34;100100.13;4972094;28;20086;-77
2024/01/21 10:06:38;;;;;;;8.57;5.05;;;;;;;5.03;54.46;100092.34;4972391;28;20054;-77
2024/01/21 10:09:18;;;;;;;7.43;5.03;;;;;;;5.00;45.90;100091.53;4972189;28;20047;-79
2024/01/21 10:11:53;;;;;;;9.95;5.55;;;;;;;5.02;50.34;100082.81;4955183;28;20152;-77
2024/01/21 10:14:20;;;;;;;9.43;4.85;;;;;;;5.06;54.10;100086.16;4955387;28;20043;-77
2024/01/21 10:16:49;;;;;;;9.60;5.15;;;;;;;5.07;54.32;100099.16;4955187;28;20070;-78
2024/01/21 10:19:27;;;;;;;7.97;5.00;;;;;;;5.07;49.97;100098.31;4971795;28;20524;-78
2024/01/21 10:22:09;;;;;;;8.25;5.38;;;;;;;5.11;48.92;100109.50;4971909;28;20541;-79
2024/01/21 10:24:51;;;;;;;9.15;5.75;;;;;;;5.15;49.13;100129.38;4954632;28;20444;-77
2024/01/21 10:27:17;;;;;;;7.60;5.15;;;;;;;5.22;55.37;100117.88;4971738;28;20480;-77
2024/01/21 10:29:45;;;;;;;9.93;5.70;;;;;;;5.23;54.80;100124.81;4971613;28;20049;-78
2024/01/21 10:32:14;;;;;;;9.02;5.65;;;;;;;5.27;55.69;100123.81;4971614;28;20198;-77
2024/01/21 10:34:45;;;;;;;12.10;5.28;;;;;;;5.30;53.25;100109.81;4971812;28;20389;-78
2024/01/21 10:37:15;;;;;;;9.90;5.53;;;;;;;5.29;48.62;100126.41;4971840;28;20054;-78
2024/01/21 10:39:47;;;;;;;12.50;5.30;;;;;;;5.34;54.88;100129.72;4971377;28;20043;-78
2024/01/21 10:42:15;;;;;;;5.78;4.10;;;;;;;5.38;55.73;100122.66;4953399;28;20452;-77
2024/01/21 10:44:43;;;;;;;9.07;5.00;;;;;;;5.37;54.71;100129.63;4971638;28;20050;-77
2024/01/21 10:47:12;;;;;;;7.45;4.65;;;;;;;5.39;55.22;100119.16;4954349;28;20069;-78
2024/01/21 10:49:40;;;;;;;8.13;5.32;;;;;;;5.42;55.32;100119.91;4954417;28;20047;-77
2024/01/21 10:52:11;;;;;;;8.65;5.13;;;;;;;5.45;55.72;100114.59;4971005;28;20047;-76
2024/01/21 10:54:38;;;;;;;9.15;5.53;;;;;;;5.49;56.64;100117.97;4971666;28;20085;-77
2024/01/21 10:57:06;;;;;;;6.75;4.80;;;;;;;5.53;56.92;100127.41;4971659;28;20102;-77
2024/01/21 10:59:36;;;;;;;7.10;4.72;;;;;;;5.56;56.57;100127.34;4971297;28;20090;-77
2024/01/21 11:02:02;;;;;;;7.47;5.03;;;;;;;5.58;56.06;100114.25;4971211;28;20054;-78
2024/01/21 11:04:29;;;;;;;7.97;5.15;;;;;;;5.64;57.16;100113.19;4971856;28;20081;-78
2024/01/21 11:06:55;;;;;;;7.68;4.82;;;;;;;5.65;54.88;100101.84;4971548;28;20047;-76
2024/01/21 11:09:25;;;;;;;11.90;5.25;;;;;;;5.67;56.32;100105.25;4971960;28;20070;-76
2024/01/21 11:11:52;;;;;;;8.93;5.03;;;;;;;5.72;57.18;100100.75;4971223;28;20134;-78
2024/01/21 11:14:39;;;;;;;6.82;4.63;;;;;;;5.71;51.92;100104.25;4971476;28;20101;-77
2024/01/21 11:17:10;;;;;;;7.93;5.13;;;;;;;5.74;52.89;100106.78;4954360;28;20065;-78
2024/01/21 11:19:54;;;;;;;10.75;5.38;;;;;;;5.77;52.21;100105.81;4971525;28;20054;-77
2024/01/21 11:22:23;;;;;;;8.05;5.03;;;;;;;5.73;53.83;100131.19;4955662;28;20050;-75
2024/01/21 11:24:53;;;;;;;8.23;5.30;;;;;;;5.81;57.10;100099.59;4971743;28;20055;-77
2024/01/21 11:27:24;;;;;;;11.35;5.80;;;;;;;5.82;55.90;100098.69;4967957;28;20054;-78
2024/01/21 11:29:57;;;;;;;8.23;4.85;;;;;;;5.83;52.72;100097.81;4954146;28;20097;-77
2024/01/21 11:32:26;;;;;;;10.38;5.47;;;;;;;5.87;57.69;100096.81;4971347;28;20053;-77
2024/01/21 11:34:54;;;;;;;10.52;6.03;;;;;;;5.90;58.01;100101.09;4971545;28;20046;-77
2024/01/21 11:37:22;;;;;;;10.10;6.10;;;;;;;5.90;57.50;100098.47;4954193;28;20393;-77